Time;durP1;ratioP1;P1;durP2;ratioP2;P2;SDS_P1;SDS_P2;PMS_P1;PMS_P2;Temp;Humidity;BMP_temperature;BMP_pressure;BME280_temperature;BME280_humidity;BME280_pressure;Samples;Min_cycle;Max_cycle;Signal;HPM_P1;HPM_P2
2022/09/24 00:01:13;;;;;;;10.90;5.57;;;9.80;94.20;;;;;;5045999;28;20033;-65
2022/09/24 00:03:40;;;;;;;11.55;4.53;;;9.90;95.10;;;;;;5047043;28;20086;-65
2022/09/24 00:06:07;;;;;;;11.75;4.30;;;10.10;96.20;;;;;;5048007;28;20132;-65
2022/09/24 00:08:34;;;;;;;7.45;4.20;;;10.30;97.10;;;;;;5046085;28;20040;-65
2022/09/24 00:11:03;;;;;;;6.63;4.32;;;10.30;97.20;;;;;;5053450;28;20064;-64
2022/09/24 00:13:29;;;;;;;6.90;4.25;;;10.30;97.20;;;;;;5043998;28;20070;-66
2022/09/24 00:15:55;;;;;;;8.75;4.38;;;10.40;97.40;;;;;;5046037;28;20037;-65
2022/09/24 00:18:20;;;;;;;7.07;4.38;;;10.40;97.10;;;;;;5052053;28;20055;-65
2022/09/24 00:20:47;;;;;;;7.18;4.40;;;10.40;97.00;;;;;;5046220;28;20033;-65
2022/09/24 00:23:13;;;;;;;8.35;4.35;;;10.40;96.70;;;;;;5044622;28;20040;-65
2022/09/24 00:28:28;;;;;;;8.80;4.60;;;10.30;96.40;;;;;;5055214;28;20086;-65
2022/09/24 00:30:57;;;;;;;6.65;4.20;;;10.30;96.80;;;;;;5047622;28;20021;-65
2022/09/24 00:33:23;;;;;;;8.23;4.30;;;10.40;97.30;;;;;;5052493;28;20045;-65
2022/09/24 00:35:51;;;;;;;10.23;4.88;;;10.50;97.20;;;;;;5051227;28;20056;-65
2022/09/24 00:38:17;;;;;;;9.63;4.85;;;10.50;97.60;;;;;;5047531;28;20537;-65
2022/09/24 00:40:43;;;;;;;7.70;4.60;;;10.50;97.80;;;;;;5046462;28;20025;-65
2022/09/24 00:43:29;;;;;;;7.85;4.32;;;10.50;97.40;;;;;;5049480;28;20321;-65
2022/09/24 00:46:35;;;;;;;8.18;4.10;;;10.50;97.30;;;;;;5045999;28;20033;-65
2022/09/24 00:49:09;;;;;;;8.82;4.25;;;10.50;97.10;;;;;;5021653;28;20037;-65
2022/09/24 00:51:35;;;;;;;8.05;4.47;;;10.40;97.00;;;;;;5046477;28;20033;-66
2022/09/24 00:54:06;;;;;;;9.68;4.82;;;10.50;97.30;;;;;;5041425;28;20039;-63
2022/09/24 00:56:41;;;;;;;6.18;4.45;;;10.50;97.50;;;;;;5044485;28;20128;-63
2022/09/24 00:59:12;;;;;;;7.43;4.63;;;10.50;97.80;;;;;;5041743;28;20047;-65
2022/09/24 01:01:38;;;;;;;7.63;4.40;;;10.60;98.00;;;;;;5040498;28;20036;-65
2022/09/24 01:04:06;;;;;;;9.35;4.75;;;10.70;98.00;;;;;;5039122;28;20025;-65
2022/09/24 01:06:31;;;;;;;7.88;4.43;;;10.60;97.70;;;;;;5036703;28;20027;-65
2022/09/24 01:08:58;;;;;;;8.70;4.60;;;10.60;97.80;;;;;;5038092;28;20025;-65
2022/09/24 01:11:39;;;;;;;10.43;4.57;;;10.60;97.60;;;;;;5037536;28;20037;-65
2022/09/24 01:14:38;;;;;;;8.45;4.38;;;10.60;97.50;;;;;;5038937;28;20017;-65
2022/09/24 01:17:24;;;;;;;8.18;4.85;;;10.60;97.40;;;;;;5035282;28;20029;-65
2022/09/24 01:20:09;;;;;;;9.15;4.60;;;10.70;97.70;;;;;;5046539;28;20037;-65
2022/09/24 01:23:06;;;;;;;12.20;4.78;;;10.70;97.70;;;;;;5037239;28;20052;-65
2022/09/24 01:25:32;;;;;;;8.50;4.78;;;10.80;98.00;;;;;;5034396;28;20033;-64
2022/09/24 01:27:57;;;;;;;7.47;4.13;;;10.80;97.80;;;;;;5036476;28;20029;-66
2022/09/24 01:30:24;;;;;;;7.75;5.15;;;10.80;97.70;;;;;;5034614;28;20037;-64
2022/09/24 01:33:02;;;;;;;8.32;4.45;;;10.80;97.70;;;;;;5037241;28;20052;-65
2022/09/24 01:35:41;;;;;;;9.43;4.35;;;10.90;98.00;;;;;;5034043;28;20670;-64
2022/09/24 01:38:39;;;;;;;7.82;4.00;;;11.10;98.00;;;;;;5035790;28;20028;-65
2022/09/24 01:41:08;;;;;;;9.40;4.53;;;11.10;98.00;;;;;;5028941;28;20045;-65
2022/09/24 01:43:33;;;;;;;8.82;4.60;;;11.10;98.00;;;;;;5042358;28;20029;-64
2022/09/24 01:46:05;;;;;;;10.02;4.43;;;11.10;98.00;;;;;;5045923;28;20035;-64
2022/09/24 01:48:33;;;;;;;8.57;4.60;;;11.00;98.00;;;;;;5043367;28;20685;-64
2022/09/24 01:51:22;;;;;;;8.60;4.88;;;11.00;98.00;;;;;;5044944;28;20365;-65
2022/09/24 01:53:51;;;;;;;7.05;4.65;;;10.90;97.80;;;;;;5045040;28;20021;-64
2022/09/24 01:56:23;;;;;;;6.88;4.40;;;10.80;97.50;;;;;;5025377;28;20033;-64
2022/09/24 01:58:52;;;;;;;6.75;4.95;;;10.70;97.20;;;;;;5038638;28;20151;-64
2022/09/24 02:01:30;;;;;;;9.50;5.10;;;10.70;97.00;;;;;;5034200;28;21772;-63
2022/09/24 02:04:05;;;;;;;8.65;4.35;;;10.60;96.50;;;;;;5034933;28;20033;-63
2022/09/24 02:06:35;;;;;;;7.05;4.20;;;10.60;95.90;;;;;;5036270;28;20376;-64
2022/09/24 02:09:01;;;;;;;6.45;4.68;;;10.60;95.70;;;;;;5034829;28;20024;-63
2022/09/24 02:11:28;;;;;;;10.23;5.07;;;10.60;95.50;;;;;;5035191;28;20030;-64
2022/09/24 02:14:00;;;;;;;8.13;4.80;;;10.60;95.40;;;;;;5037528;28;20443;-66
2022/09/24 02:16:44;;;;;;;6.47;4.35;;;10.60;95.30;;;;;;5035135;28;20048;-64
2022/09/24 02:19:16;;;;;;;6.70;4.38;;;10.70;95.30;;;;;;5038146;28;20409;-65
2022/09/24 02:21:49;;;;;;;6.82;4.50;;;10.70;95.40;;;;;;5034561;28;20037;-65
2022/09/24 02:24:21;;;;;;;6.85;5.00;;;10.80;95.50;;;;;;5034505;28;20021;-63
2022/09/24 02:26:47;;;;;;;9.77;5.32;;;10.80;95.90;;;;;;5045476;28;20318;-65
2022/09/24 02:29:13;;;;;;;10.25;4.85;;;10.80;95.90;;;;;;5040178;28;20044;-64
2022/09/24 02:31:47;;;;;;;9.35;5.15;;;10.80;95.60;;;;;;5055137;28;20060;-65
2022/09/24 02:34:22;;;;;;;7.25;5.03;;;10.80;95.50;;;;;;5052361;28;20064;-64
2022/09/24 02:36:48;;;;;;;12.90;5.30;;;10.80;95.50;;;;;;5046793;28;20429;-64
2022/09/24 02:39:17;;;;;;;9.75;5.93;;;10.90;95.30;;;;;;5041200;28;20035;-65
2022/09/24 02:41:47;;;;;;;8.35;4.68;;;10.90;96.00;;;;;;5041341;28;20028;-64
2022/09/24 02:44:16;;;;;;;8.35;4.53;;;10.90;95.90;;;;;;5052918;28;20031;-64
2022/09/24 02:46:46;;;;;;;11.60;5.50;;;11.00;96.20;;;;;;5047606;28;20103;-64
2022/09/24 02:49:13;;;;;;;8.55;5.35;;;11.00;96.30;;;;;;5051419;28;20017;-64
2022/09/24 02:51:39;;;;;;;8.20;5.25;;;11.00;95.90;;;;;;5049230;28;20029;-64
2022/09/24 02:54:05;;;;;;;8.32;4.78;;;11.00;95.70;;;;;;5049220;28;20025;-65
2022/09/24 02:56:31;;;;;;;10.32;5.18;;;11.10;95.60;;;;;;5050337;28;20034;-65
2022/09/24 02:58:57;;;;;;;8.70;5.00;;;11.10;95.50;;;;;;5048169;28;20080;-65
2022/09/24 03:01:23;;;;;;;9.32;5.40;;;11.10;95.20;;;;;;5050854;28;20029;-64
2022/09/24 03:03:49;;;;;;;7.55;4.95;;;11.10;95.00;;;;;;5048316;28;20028;-64
2022/09/24 03:06:15;;;;;;;7.57;4.97;;;11.10;95.00;;;;;;5049980;28;20024;-64
2022/09/24 03:08:41;;;;;;;7.35;4.80;;;11.20;95.10;;;;;;5048591;28;20070;-65
2022/09/24 03:11:10;;;;;;;8.02;5.07;;;11.20;94.40;;;;;;5047032;28;20029;-64
2022/09/24 03:13:37;;;;;;;10.35;5.60;;;11.30;94.30;;;;;;5043484;28;20028;-65
2022/09/24 03:16:04;;;;;;;9.70;4.80;;;11.40;94.20;;;;;;5046692;28;20029;-65
2022/09/24 03:18:30;;;;;;;7.20;4.70;;;11.50;93.80;;;;;;5052951;28;20048;-64
2022/09/24 03:21:10;;;;;;;8.85;4.90;;;11.50;95.70;;;;;;5048621;28;20025;-65
2022/09/24 03:23:39;;;;;;;8.13;5.53;;;11.40;96.20;;;;;;5037946;28;20108;-64
2022/09/24 03:26:05;;;;;;;9.00;5.68;;;11.30;96.10;;;;;;5043430;28;20108;-64
2022/09/24 03:28:30;;;;;;;10.80;5.72;;;11.30;95.80;;;;;;5046089;28;20104;-64
2022/09/24 03:30:59;;;;;;;8.35;5.05;;;11.20;95.60;;;;;;5047846;28;20025;-64
2022/09/24 03:33:28;;;;;;;7.30;4.95;;;11.20;95.50;;;;;;5055950;28;20055;-64
2022/09/24 03:36:24;;;;;;;8.80;4.80;;;11.10;95.20;;;;;;5049251;28;20065;-64
2022/09/24 03:38:55;;;;;;;8.90;4.55;;;11.10;95.10;;;;;;5040681;28;20033;-64
2022/09/24 03:41:21;;;;;;;8.00;5.38;;;11.10;94.90;;;;;;5052634;28;20033;-63
2022/09/24 03:43:47;;;;;;;10.90;5.82;;;11.20;95.10;;;;;;5044825;28;20025;-64
2022/09/24 03:46:15;;;;;;;7.10;4.97;;;11.20;95.80;;;;;;5050220;28;20321;-65
2022/09/24 03:48:41;;;;;;;10.27;5.78;;;11.20;95.40;;;;;;5049513;28;20029;-64
2022/09/24 03:51:10;;;;;;;9.18;5.20;;;11.20;95.30;;;;;;5049599;28;20087;-64
2022/09/24 03:53:36;;;;;;;10.98;6.55;;;11.20;94.90;;;;;;5050182;28;20029;-65
2022/09/24 03:56:04;;;;;;;10.50;5.47;;;11.20;94.80;;;;;;5050186;28;20098;-65
2022/09/24 03:58:30;;;;;;;7.80;5.43;;;11.10;94.30;;;;;;5050310;28;20347;-65
2022/09/24 04:00:57;;;;;;;10.40;5.00;;;11.10;94.00;;;;;;5039594;28;21262;-65
2022/09/24 04:03:23;;;;;;;8.10;4.85;;;11.10;93.80;;;;;;5038104;28;20033;-65
2022/09/24 04:05:52;;;;;;;9.13;5.03;;;11.10;94.10;;;;;;5041657;28;20078;-65
2022/09/24 04:08:19;;;;;;;9.50;5.32;;;11.00;93.60;;;;;;5037582;28;20025;-64
2022/09/24 04:10:46;;;;;;;6.72;4.72;;;11.00;93.30;;;;;;5040273;28;20028;-65
2022/09/24 04:13:12;;;;;;;7.30;4.57;;;11.00;92.90;;;;;;5039393;28;20456;-64
2022/09/24 04:15:38;;;;;;;6.88;4.65;;;11.00;93.20;;;;;;5039613;28;20607;-65
2022/09/24 04:18:04;;;;;;;7.85;5.05;;;11.10;92.60;;;;;;5040956;28;20048;-65
2022/09/24 04:20:30;;;;;;;10.15;5.38;;;11.10;92.90;;;;;;5038128;28;20355;-64
2022/09/24 04:22:57;;;;;;;11.50;5.03;;;11.20;93.30;;;;;;5039417;28;20033;-64
2022/09/24 04:25:24;;;;;;;8.90;5.65;;;11.20;93.10;;;;;;5042337;28;20032;-65
2022/09/24 04:27:55;;;;;;;9.65;5.90;;;11.10;93.00;;;;;;5054456;28;20110;-65
2022/09/24 04:30:22;;;;;;;8.52;5.63;;;11.10;92.80;;;;;;5050100;28;20030;-65
2022/09/24 04:32:50;;;;;;;8.98;5.13;;;11.00;92.50;;;;;;5049946;28;20029;-65
2022/09/24 04:35:16;;;;;;;9.00;4.70;;;11.00;92.50;;;;;;5047701;28;20072;-64
2022/09/24 04:37:42;;;;;;;7.68;4.90;;;11.00;91.60;;;;;;5053892;28;20430;-64
2022/09/24 04:40:11;;;;;;;8.32;5.30;;;11.10;92.30;;;;;;5047596;28;20025;-64
2022/09/24 04:42:38;;;;;;;11.30;5.50;;;11.20;92.80;;;;;;5051927;28;20037;-65
2022/09/24 04:45:08;;;;;;;9.50;6.30;;;11.20;92.70;;;;;;5051663;28;20025;-64
2022/09/24 04:47:35;;;;;;;9.38;5.97;;;11.20;93.80;;;;;;5051938;28;20406;-65
2022/09/24 04:50:01;;;;;;;10.48;6.75;;;11.20;93.80;;;;;;5041692;28;20394;-65
2022/09/24 04:52:28;;;;;;;11.70;7.10;;;11.30;94.10;;;;;;5046610;28;20017;-64
2022/09/24 04:54:56;;;;;;;11.63;7.18;;;11.40;96.10;;;;;;5047916;28;20104;-64
2022/09/24 04:57:22;;;;;;;9.85;6.78;;;11.50;96.80;;;;;;5043918;28;20384;-64
2022/09/24 04:59:51;;;;;;;9.57;6.43;;;11.50;96.90;;;;;;5044397;28;20116;-64
2022/09/24 05:02:17;;;;;;;7.70;5.45;;;11.50;96.30;;;;;;5057851;28;20029;-64
2022/09/24 05:04:43;;;;;;;8.50;5.68;;;11.40;95.40;;;;;;5026834;28;20037;-64
2022/09/24 05:07:12;;;;;;;7.45;5.50;;;11.40;94.90;;;;;;5050714;28;20422;-67
2022/09/24 05:09:38;;;;;;;9.73;6.15;;;11.40;94.40;;;;;;5047347;28;20103;-65
2022/09/24 05:12:04;;;;;;;8.90;6.43;;;11.40;94.50;;;;;;5052853;28;20477;-65
2022/09/24 05:14:30;;;;;;;10.63;6.97;;;11.40;94.10;;;;;;5047684;28;20025;-65
2022/09/24 05:16:56;;;;;;;10.65;8.07;;;11.50;93.70;;;;;;5042625;28;20484;-66
2022/09/24 05:19:22;;;;;;;11.55;6.60;;;11.50;94.10;;;;;;5031333;28;20036;-65
2022/09/24 05:21:48;;;;;;;10.23;6.55;;;11.50;94.00;;;;;;5050029;28;20037;-64
2022/09/24 05:24:14;;;;;;;9.43;6.00;;;11.40;93.30;;;;;;5041374;28;20083;-65
2022/09/24 05:29:24;;;;;;;11.35;7.90;;;11.50;92.20;;;;;;5041000;28;20052;-64
2022/09/24 05:31:49;;;;;;;11.82;7.53;;;11.50;91.30;;;;;;5046072;28;20349;-65
2022/09/24 05:34:15;;;;;;;9.45;6.38;;;11.50;92.30;;;;;;5045530;28;20100;-65
2022/09/24 05:36:43;;;;;;;9.75;6.63;;;11.50;91.80;;;;;;5048952;28;20028;-65
2022/09/24 05:39:10;;;;;;;11.55;7.03;;;11.50;91.10;;;;;;5039003;28;20026;-65
2022/09/24 05:41:36;;;;;;;11.63;7.97;;;11.60;90.80;;;;;;5042849;28;20021;-65
2022/09/24 05:44:03;;;;;;;9.93;6.70;;;11.60;91.00;;;;;;5039673;28;20028;-65
2022/09/24 05:46:28;;;;;;;9.90;7.88;;;11.50;90.90;;;;;;5045171;28;20022;-64
2022/09/24 05:48:54;;;;;;;8.20;5.78;;;11.40;90.40;;;;;;5042460;28;20044;-65
2022/09/24 05:51:20;;;;;;;13.63;8.88;;;11.40;89.20;;;;;;5043266;28;20048;-64
2022/09/24 05:53:46;;;;;;;9.98;6.80;;;11.40;89.20;;;;;;5051014;28;20029;-65
2022/09/24 05:56:11;;;;;;;10.70;7.47;;;11.40;88.60;;;;;;5047320;28;20374;-65
2022/09/24 05:58:37;;;;;;;10.10;7.05;;;11.40;88.50;;;;;;5044333;28;20100;-65
2022/09/24 06:01:03;;;;;;;10.93;7.10;;;11.40;88.00;;;;;;5031657;28;20082;-65
2022/09/24 06:03:30;;;;;;;12.23;8.82;;;11.40;87.70;;;;;;5032281;28;20029;-65
2022/09/24 06:05:58;;;;;;;12.55;9.65;;;11.50;87.10;;;;;;5036789;28;20033;-65
2022/09/24 06:08:24;;;;;;;13.43;7.95;;;11.50;87.30;;;;;;5038976;28;20315;-65
2022/09/24 06:10:57;;;;;;;10.38;7.63;;;11.60;87.60;;;;;;5042194;28;20033;-65
2022/09/24 06:13:22;;;;;;;10.43;8.27;;;11.60;87.50;;;;;;5047053;28;20091;-65
2022/09/24 06:15:48;;;;;;;10.95;7.10;;;11.70;87.90;;;;;;5043513;28;20041;-65
2022/09/24 06:18:14;;;;;;;11.27;6.85;;;11.80;87.90;;;;;;5048475;28;20036;-65
2022/09/24 06:20:39;;;;;;;10.93;6.53;;;11.90;88.40;;;;;;5048526;28;20033;-65
2022/09/24 06:23:05;;;;;;;10.55;7.82;;;12.00;88.90;;;;;;5057944;28;20029;-65
2022/09/24 06:25:31;;;;;;;19.00;15.88;;;12.10;88.90;;;;;;5051770;28;20049;-65
2022/09/24 06:28:02;;;;;;;12.35;8.18;;;12.00;89.00;;;;;;5051000;28;20040;-65
2022/09/24 06:30:31;;;;;;;10.57;8.18;;;12.10;89.40;;;;;;5053011;28;20041;-65
2022/09/24 06:33:08;;;;;;;9.23;7.35;;;12.10;90.60;;;;;;5055697;28;20041;-65
2022/09/24 06:35:35;;;;;;;11.98;7.55;;;12.10;90.00;;;;;;5049234;28;20487;-65
2022/09/24 06:38:02;;;;;;;9.60;6.22;;;12.20;89.90;;;;;;5040162;28;20029;-65
2022/09/24 06:40:27;;;;;;;12.90;8.70;;;12.20;91.00;;;;;;5045714;28;20040;-66
2022/09/24 06:42:53;;;;;;;13.77;8.65;;;12.30;91.00;;;;;;5045775;28;20025;-65
2022/09/24 06:45:22;;;;;;;11.02;6.03;;;12.40;90.60;;;;;;5038552;28;20052;-66
2022/09/24 06:47:56;;;;;;;9.10;5.80;;;12.60;93.10;;;;;;5038729;28;20370;-65
2022/09/24 06:50:23;;;;;;;11.55;7.32;;;12.70;92.60;;;;;;5044111;28;20036;-65
2022/09/24 06:52:49;;;;;;;11.90;8.63;;;12.80;92.60;;;;;;5052127;28;20140;-65
2022/09/24 06:55:15;;;;;;;11.82;10.48;;;12.90;92.50;;;;;;5052831;28;20096;-65
2022/09/24 06:57:41;;;;;;;8.73;6.80;;;12.90;92.60;;;;;;5051389;28;20627;-65
2022/09/24 07:00:08;;;;;;;9.98;6.40;;;13.00;92.00;;;;;;5056715;28;20111;-64
2022/09/24 07:02:35;;;;;;;11.27;6.55;;;13.10;91.80;;;;;;5049837;28;20641;-65
2022/09/24 07:05:01;;;;;;;12.27;7.57;;;13.10;92.00;;;;;;5052129;28;20021;-65
2022/09/24 07:07:30;;;;;;;9.68;6.80;;;13.00;92.50;;;;;;5043679;28;20040;-65
2022/09/24 07:09:56;;;;;;;9.00;5.80;;;13.10;92.00;;;;;;5038099;28;20052;-64
2022/09/24 07:12:22;;;;;;;8.48;5.05;;;13.10;93.40;;;;;;5038915;28;20033;-66
2022/09/24 07:14:48;;;;;;;6.78;4.50;;;13.10;93.40;;;;;;5050499;28;20062;-65
2022/09/24 07:17:14;;;;;;;7.13;3.90;;;13.20;93.20;;;;;;5052631;28;20049;-65
2022/09/24 07:19:43;;;;;;;7.75;5.60;;;13.20;94.90;;;;;;5054145;28;20063;-65
2022/09/24 07:22:08;;;;;;;8.50;5.13;;;13.20;96.90;;;;;;5050106;28;20240;-64
2022/09/24 07:24:34;;;;;;;6.95;3.72;;;13.20;97.60;;;;;;5040252;28;20789;-65
2022/09/24 07:26:59;;;;;;;5.10;3.47;;;13.20;98.00;;;;;;5048706;28;20096;-66
2022/09/24 07:29:25;;;;;;;5.28;3.40;;;13.10;98.00;;;;;;5051101;28;20029;-65
2022/09/24 07:31:51;;;;;;;6.43;3.50;;;13.10;98.00;;;;;;5041510;28;20063;-65
2022/09/24 07:34:16;;;;;;;6.18;3.30;;;13.20;98.00;;;;;;5047659;28;20048;-65
2022/09/24 07:36:42;;;;;;;5.55;3.42;;;13.20;97.70;;;;;;5054212;28;20100;-66
2022/09/24 07:39:08;;;;;;;7.55;4.03;;;13.10;98.00;;;;;;5043414;28;20432;-67
2022/09/24 07:41:34;;;;;;;10.32;5.25;;;13.00;98.00;;;;;;5049549;28;20365;-67
2022/09/24 07:44:00;;;;;;;5.85;3.58;;;12.90;97.80;;;;;;5046684;28;20022;-66
2022/09/24 07:46:26;;;;;;;7.85;3.95;;;12.80;96.10;;;;;;5046294;28;20114;-66
2022/09/24 07:48:55;;;;;;;6.85;3.90;;;12.80;94.70;;;;;;5047175;28;20035;-66
2022/09/24 07:51:26;;;;;;;7.78;4.75;;;12.60;94.30;;;;;;5048288;28;20498;-65
2022/09/24 07:53:52;;;;;;;7.38;4.78;;;12.60;92.40;;;;;;5048282;28;20055;-66
2022/09/24 07:56:18;;;;;;;7.18;5.05;;;12.60;91.90;;;;;;5044063;28;20030;-65
2022/09/24 07:58:47;;;;;;;7.25;4.97;;;12.50;90.40;;;;;;5044353;28;20354;-66
2022/09/24 08:01:13;;;;;;;6.82;5.03;;;12.30;89.90;;;;;;5037402;28;20174;-66
2022/09/24 08:03:39;;;;;;;6.90;3.67;;;12.30;88.20;;;;;;5038454;28;20033;-68
2022/09/24 08:06:05;;;;;;;7.30;4.28;;;12.20;88.90;;;;;;5040963;28;20021;-67
2022/09/24 08:08:34;;;;;;;5.28;3.13;;;12.10;88.90;;;;;;5041214;28;20044;-67
2022/09/24 08:11:09;;;;;;;5.50;3.10;;;12.10;88.80;;;;;;5035011;28;20282;-67
2022/09/24 08:13:35;;;;;;;8.35;4.00;;;12.10;88.60;;;;;;5036602;28;20031;-70
2022/09/24 08:16:02;;;;;;;6.68;3.35;;;12.20;88.20;;;;;;5037644;28;20024;-69
2022/09/24 08:18:30;;;;;;;5.43;3.58;;;12.20;88.40;;;;;;5036058;28;20035;-66
2022/09/24 08:20:58;;;;;;;6.32;3.20;;;12.20;88.90;;;;;;5039710;28;20507;-67
2022/09/24 08:23:24;;;;;;;6.60;3.30;;;12.20;89.40;;;;;;5039749;28;20025;-68
2022/09/24 08:25:52;;;;;;;7.28;3.67;;;12.20;89.00;;;;;;5046330;28;20461;-67
2022/09/24 08:28:18;;;;;;;8.88;4.03;;;12.20;89.20;;;;;;5043847;28;20414;-68
2022/09/24 08:30:45;;;;;;;6.82;2.97;;;12.30;89.10;;;;;;5045254;28;20112;-68
2022/09/24 08:33:11;;;;;;;4.95;3.08;;;12.30;90.10;;;;;;5048315;28;20037;-67
2022/09/24 08:35:40;;;;;;;5.65;3.60;;;12.40;89.40;;;;;;5048431;28;20513;-67
2022/09/24 08:38:07;;;;;;;7.60;3.75;;;12.50;89.10;;;;;;5041701;28;20029;-67
2022/09/24 08:40:41;;;;;;;4.75;2.83;;;12.50;89.40;;;;;;5051411;28;20417;-67
2022/09/24 08:43:20;;;;;;;5.03;2.58;;;12.60;88.60;;;;;;5050778;28;20032;-67
2022/09/24 08:48:39;;;;;;;6.65;3.10;;;12.60;90.30;;;;;;5053873;28;20437;-68
2022/09/24 08:51:12;;;;;;;4.90;3.15;;;12.60;90.10;;;;;;5055413;28;20039;-67
2022/09/24 08:54:01;;;;;;;4.90;2.72;;;12.60;89.40;;;;;;5045142;28;20418;-68
2022/09/24 08:56:34;;;;;;;6.40;3.50;;;12.70;90.80;;;;;;5036267;28;20071;-67
2022/09/24 08:59:36;;;;;;;4.32;3.22;;;12.70;90.60;;;;;;5044883;28;20039;-68
2022/09/24 09:02:13;;;;;;;5.70;2.63;;;12.70;88.90;;;;;;4990275;28;20045;-68
2022/09/24 09:04:57;;;;;;;7.03;3.45;;;12.70;89.70;;;;;;5035977;28;20037;-67
2022/09/24 09:07:47;;;;;;;5.53;2.60;;;12.70;89.40;;;;;;5041715;28;20453;-67
2022/09/24 09:10:27;;;;;;;4.95;2.97;;;12.70;91.60;;;;;;5046957;28;20060;-67
2022/09/24 09:13:17;;;;;;;5.57;3.00;;;12.70;91.30;;;;;;5047682;28;20036;-67
2022/09/24 09:15:49;;;;;;;6.35;3.10;;;12.80;91.00;;;;;;5042275;28;20032;-67
2022/09/24 09:18:25;;;;;;;5.50;3.58;;;12.90;91.50;;;;;;5046656;28;20083;-68
2022/09/24 09:20:51;;;;;;;5.40;2.85;;;12.90;91.40;;;;;;5040542;28;20021;-68
2022/09/24 09:23:40;;;;;;;4.68;2.65;;;13.00;90.80;;;;;;5041707;28;20030;-67
2022/09/24 09:26:10;;;;;;;5.57;2.90;;;13.10;91.70;;;;;;5044227;28;20489;-67
2022/09/24 09:28:40;;;;;;;6.63;2.70;;;13.00;92.90;;;;;;5044802;28;20437;-67
2022/09/24 09:31:17;;;;;;;9.35;3.45;;;12.90;94.80;;;;;;5048902;28;20095;-68
2022/09/24 09:33:49;;;;;;;4.72;2.53;;;12.90;92.60;;;;;;5042973;28;20051;-67
2022/09/24 09:36:42;;;;;;;5.00;3.00;;;12.90;93.00;;;;;;5042365;28;20049;-68
2022/09/24 09:39:41;;;;;;;4.97;2.80;;;12.90;93.30;;;;;;5035192;28;20032;-68
2022/09/24 09:42:21;;;;;;;5.55;3.10;;;13.00;92.50;;;;;;5047967;28;20059;-68
2022/09/24 09:44:48;;;;;;;6.32;3.05;;;13.10;92.90;;;;;;5051171;28;20021;-66
2022/09/24 09:47:23;;;;;;;6.28;3.15;;;13.20;92.90;;;;;;5049375;28;20044;-68
2022/09/24 09:49:52;;;;;;;6.80;3.90;;;13.20;93.40;;;;;;5047542;28;20040;-66
2022/09/24 09:52:25;;;;;;;6.75;3.80;;;13.40;92.90;;;;;;5049478;28;20029;-67
2022/09/24 09:54:51;;;;;;;4.60;2.47;;;13.50;94.30;;;;;;5042940;28;20025;-65
2022/09/24 09:57:23;;;;;;;5.30;2.83;;;13.60;95.90;;;;;;5050871;28;20023;-66
2022/09/24 09:59:50;;;;;;;5.35;3.17;;;13.80;96.50;;;;;;5043385;28;20029;-66
2022/09/24 10:02:42;;;;;;;4.93;2.88;;;14.10;95.60;;;;;;5032232;28;20036;-66
2022/09/24 10:05:22;;;;;;;4.30;2.58;;;14.30;96.30;;;;;;5035499;28;20060;-66
2022/09/24 10:07:48;;;;;;;5.95;2.90;;;14.40;98.00;;;;;;5036262;28;20036;-67
2022/09/24 10:10:22;;;;;;;4.72;2.45;;;14.40;97.40;;;;;;5031990;28;20025;-67
2022/09/24 10:13:08;;;;;;;5.05;2.47;;;14.60;97.80;;;;;;5031616;28;20318;-66
2022/09/24 10:15:47;;;;;;;5.38;2.30;;;14.80;98.00;;;;;;5032936;28;20083;-67
2022/09/24 10:18:14;;;;;;;5.07;2.10;;;14.90;98.00;;;;;;5036006;28;20029;-67
2022/09/24 10:20:47;;;;;;;4.20;2.28;;;15.00;98.00;;;;;;5037492;28;20029;-67
2022/09/24 10:23:20;;;;;;;3.97;2.08;;;15.10;98.00;;;;;;5053618;28;20420;-67
2022/09/24 10:25:59;;;;;;;6.15;2.45;;;14.90;98.00;;;;;;5039163;28;20025;-67
2022/09/24 10:31:22;;;;;;;3.70;2.13;;;15.20;98.00;;;;;;5045802;28;20094;-67
2022/09/24 10:33:52;;;;;;;4.70;2.08;;;15.60;98.00;;;;;;5051426;28;20368;-67
2022/09/24 10:36:26;;;;;;;4.63;2.00;;;15.90;98.00;;;;;;5051200;28;20315;-67
2022/09/24 10:39:12;;;;;;;3.90;2.08;;;15.80;98.00;;;;;;5031691;28;20032;-67
2022/09/24 10:41:48;;;;;;;4.10;2.20;;;15.90;98.00;;;;;;5041023;28;20053;-67
2022/09/24 10:44:15;;;;;;;4.40;2.03;;;16.30;98.00;;;;;;5051422;28;20488;-67
2022/09/24 10:46:53;;;;;;;4.72;2.28;;;16.30;98.00;;;;;;5053094;28;20139;-66
2022/09/24 10:49:48;;;;;;;4.32;2.10;;;16.20;97.70;;;;;;5046004;28;20107;-66
2022/09/24 10:52:35;;;;;;;3.72;2.03;;;16.00;98.00;;;;;;5052589;28;20044;-65
2022/09/24 10:55:38;;;;;;;5.65;2.00;;;16.40;98.00;;;;;;5054500;28;20020;-66
2022/09/24 10:58:25;;;;;;;4.68;2.28;;;16.40;96.20;;;;;;5047260;28;20021;-67
2022/09/24 11:01:06;;;;;;;4.80;2.22;;;16.40;97.20;;;;;;5048473;28;20414;-67
2022/09/24 11:03:59;;;;;;;3.97;1.95;;;16.40;95.90;;;;;;5049060;28;20028;-67
2022/09/24 11:06:52;;;;;;;4.47;2.00;;;16.60;96.90;;;;;;5024428;28;20075;-67
2022/09/24 11:09:42;;;;;;;4.95;2.20;;;16.80;95.50;;;;;;5054229;28;20414;-65
2022/09/24 11:12:14;;;;;;;6.25;2.08;;;17.10;94.60;;;;;;5052142;28;20025;-65
2022/09/24 11:15:16;;;;;;;3.47;1.88;;;17.50;95.00;;;;;;5047461;28;20017;-66
2022/09/24 11:17:50;;;;;;;3.95;1.90;;;17.50;92.70;;;;;;5048390;28;20330;-66
2022/09/24 11:20:29;;;;;;;3.63;1.80;;;17.10;95.20;;;;;;5045539;28;20317;-63
2022/09/24 11:23:22;;;;;;;5.25;2.00;;;17.10;94.60;;;;;;5053851;28;20029;-65
2022/09/24 11:26:01;;;;;;;4.43;2.22;;;17.40;92.70;;;;;;5041805;28;20039;-66
2022/09/24 11:28:33;;;;;;;5.38;2.28;;;17.10;93.80;;;;;;5043730;28;20032;-64
2022/09/24 11:31:17;;;;;;;7.07;2.42;;;17.20;94.70;;;;;;5049475;28;20083;-66
2022/09/24 11:33:44;;;;;;;;;;;17.40;94.20;;;;;;5040621;28;20021;-67
2022/09/24 11:36:27;;;;;;;4.25;2.13;;;17.40;93.80;;;;;;5050565;28;20209;-65
2022/09/24 11:39:04;;;;;;;6.35;2.03;;;17.50;93.70;;;;;;5046897;28;20064;-66
2022/09/24 11:42:04;;;;;;;4.05;2.05;;;17.90;93.30;;;;;;5042261;28;20029;-66
2022/09/24 11:44:51;;;;;;;4.43;2.03;;;18.00;92.10;;;;;;5046728;28;20029;-66
2022/09/24 11:47:43;;;;;;;3.45;2.00;;;18.20;93.30;;;;;;5039001;28;20030;-65
2022/09/24 11:50:34;;;;;;;4.22;2.33;;;18.40;91.70;;;;;;5047328;28;20447;-66
2022/09/24 11:53:26;;;;;;;5.55;2.90;;;18.40;91.70;;;;;;5041438;28;20329;-66
2022/09/24 11:55:58;;;;;;;6.93;2.92;;;18.00;89.30;;;;;;5042477;28;20033;-66
2022/09/24 11:58:32;;;;;;;6.35;3.50;;;17.60;92.10;;;;;;5052497;28;20419;-66
2022/09/24 12:01:22;;;;;;;8.82;4.50;;;17.50;91.90;;;;;;5043903;28;20036;-66
2022/09/24 12:04:03;;;;;;;7.80;3.33;;;17.30;92.80;;;;;;5038731;28;20021;-66
2022/09/24 12:06:36;;;;;;;6.45;3.60;;;17.20;92.20;;;;;;5036498;28;20043;-66
2022/09/24 12:09:21;;;;;;;6.45;3.90;;;17.10;93.20;;;;;;5039702;28;20021;-66
2022/09/24 12:12:06;;;;;;;4.75;2.97;;;17.20;94.10;;;;;;5040834;28;20314;-65
2022/09/24 12:14:50;;;;;;;5.85;2.80;;;17.30;92.90;;;;;;5040238;28;20604;-65
2022/09/24 12:17:27;;;;;;;4.67;2.60;;;17.60;92.20;;;;;;5042071;28;20035;-65
2022/09/24 12:19:58;;;;;;;4.10;2.47;;;17.90;92.20;;;;;;5039658;28;20294;-65
2022/09/24 12:22:26;;;;;;;5.47;2.95;;;17.80;89.40;;;;;;5044876;28;20060;-66
2022/09/24 12:24:53;;;;;;;5.18;2.78;;;17.60;91.10;;;;;;5053085;28;20028;-66
2022/09/24 12:27:44;;;;;;;6.40;2.80;;;17.80;91.50;;;;;;5056630;28;20024;-65
2022/09/24 12:33:28;;;;;;;5.15;2.75;;;18.20;88.10;;;;;;5048097;28;20499;-65
2022/09/24 12:36:27;;;;;;;4.70;2.70;;;18.40;89.70;;;;;;5056241;28;20076;-66
2022/09/24 12:39:00;;;;;;;4.47;2.63;;;18.50;88.70;;;;;;5055067;28;20033;-65
2022/09/24 12:41:31;;;;;;;5.97;3.15;;;18.80;89.50;;;;;;5055508;28;20021;-65
2022/09/24 12:44:11;;;;;;;5.35;2.72;;;19.00;88.50;;;;;;5051492;28;20029;-65
2022/09/24 12:46:45;;;;;;;5.07;2.90;;;18.70;87.40;;;;;;5051905;28;20025;-66
2022/09/24 12:49:17;;;;;;;4.75;2.67;;;18.70;88.80;;;;;;5046808;28;20087;-67
2022/09/24 12:51:43;;;;;;;5.70;2.90;;;18.90;88.00;;;;;;5053744;28;20029;-66
2022/09/24 12:54:23;;;;;;;6.25;2.78;;;19.10;87.10;;;;;;5052023;28;20028;-66
2022/09/24 12:56:49;;;;;;;5.20;2.78;;;19.60;85.50;;;;;;5055491;28;20079;-66
2022/09/24 12:59:27;;;;;;;5.20;3.20;;;19.60;85.60;;;;;;5054628;28;20033;-65
2022/09/24 13:01:53;;;;;;;5.18;3.15;;;18.90;86.10;;;;;;5055460;28;20025;-65
2022/09/24 13:04:19;;;;;;;6.40;3.90;;;18.50;88.30;;;;;;5054242;28;20033;-65
2022/09/24 13:06:47;;;;;;;7.25;4.63;;;18.00;89.70;;;;;;5055131;28;20083;-65
2022/09/24 13:09:35;;;;;;;7.70;5.18;;;17.20;94.40;;;;;;5052259;28;20291;-65
2022/09/24 13:12:19;;;;;;;8.35;5.32;;;16.30;96.90;;;;;;5049261;28;20022;-65
2022/09/24 13:14:55;;;;;;;7.40;4.85;;;15.70;98.00;;;;;;5051484;28;20059;-66
2022/09/24 13:17:21;;;;;;;8.00;4.85;;;15.10;98.00;;;;;;5052206;28;20433;-66
2022/09/24 13:19:56;;;;;;;8.23;4.50;;;14.80;97.90;;;;;;5044296;28;20030;-66
2022/09/24 13:22:28;;;;;;;8.05;4.93;;;14.50;97.90;;;;;;5038485;28;20033;-66
2022/09/24 13:25:09;;;;;;;7.78;5.70;;;14.20;98.00;;;;;;5053550;28;20021;-66